ADDS METAR Data INFO
IDs: Format: Raw Decoded Include TAF

Data at: 2212 UTC 24 Jun 2018

KTEB 242151Z 24011KT 10SM FEW065 SCT090 31/17 A2974 RMK AO2 SLP071 T03110172 $
KTEB 242051Z 27008KT 10SM FEW055 BKN090 OVC100 30/18 A2975 RMK AO2 SLP075 T03000178 56007 $
KTEB 241951Z 19007KT 10SM SCT050 SCT065 OVC090 29/20 A2975 RMK AO2 SLP075 T02940200 $
KTEB 241851Z 19010KT 10SM FEW049 BKN065 BKN095 28/20 A2977 RMK AO2 WSHFT 1747 SLP080 T02830200 $
KTEB 241807Z 18012KT 10SM FEW037 BKN047 BKN055 28/20 A2977 RMK AO2 WSHFT 1747 T02830200 $
KTEB 241751Z 22012KT 10SM SCT047 SCT090 30/19 A2978 RMK AO2 SLP083 T03000189 10306 20206 58014 $
KTEB 241651Z 26009G16KT 10SM SCT038 SCT055 29/19 A2979 RMK AO2 SLP087 T02890194 $
KTEB 241551Z 19009KT 8SM SCT028 SCT034 27/21 A2981 RMK AO2 SLP094 T02720206 $
KTEB 241511Z VRB03KT 8SM SCT021 26/20 A2982 RMK AO2 T02610200 $
KTEB 241451Z 14006KT 4SM BKN021 25/19 A2982 RMK AO2 SLP097 T02500194 58003 $
KTEB 241417Z 21006KT 4SM OVC016 24/19 A2982 RMK AO2 T02390194 $
KTEB 241351Z VRB04KT 4SM OVC012 24/19 A2982 RMK AO2 SLP099 T02390194 $
KTEB 241334Z VRB03KT 4SM A2983 RMK AO2 T02220194 $
KTEB 241258Z 19004KT 4SM HZ OVC008 22/19 A2983 RMK AO2 T02170189 $
KTEB 241251Z 19005KT 2SM BR OVC006 21/19 A2983 RMK AO2 SLP100 T02110189 $
KTEB 241151Z 19004KT 2SM BR OVC006 21/19 A2983 RMK AO2 SLP099 60000 T02060189 10206 20189 50008 $
KTEB 241126Z 2412/2518 20 SCT008 OVC012 TEMPO 2412/2414 2SM BR OVC008 FM241400 22005KT P6SM OVC014 FM241700 23009KT P6SM FEW040 BKN250 TEMPO 2422/2501 SHRA BKN040 FM250100 VRB05KT P6SM BKN250 FM250500 29009KT P6SM FEW030 BKN250 FM250700 35012KT P6SM FEW03
KTEB 241121Z 22006KT 2SM BR OVC008 20/18 A2983 RMK AO2 T02000183 $
KTEB 241051Z 21006KT 3SM BR OVC008 19/18 A2983 RMK AO2 DZB08E43 SLP100 P0000 T01940178 $
KTEB 241025Z 20004KT 3SM -DZ BR BKN008 OVC012 19/18 A2982 RMK AO2 DZB08 CIG 006V011 P0000 T01940183 $
KTEB 240951Z 19007KT 4SM BR OVC011 19/18 A2981 RMK AO2 SLP094 T01940178 $
KTEB 240851Z 00000KT 9SM OVC013 20/17 A2980 RMK AO2 RAB37E45 SLP091 P0000 60000 T02000172 56006 $
KTEB 240751Z 00000KT 9SM BKN018 19/17 A2980 RMK AO2 SLP092 T01940172 $
KTEB 240651Z 00000KT 9SM OVC014 19/17 A2980 RMK AO2 DZE0554 SLP091 P0000 T01940167 $
KTEB 240551Z 00000KT 10SM -DZ OVC014 19/17 A2982 RMK AO2 DZB00 SLP097 P0000 60000 T01940167 10194 20189 58001 $
KTEB 240451Z 00000KT 10SM OVC014 19/17 A2983 RMK AO2 SLP099 T01940167 402000172 $
KTEB 240351Z 00000KT 10SM OVC017 19/17 A2983 RMK AO2 SLP099 T01890167 $
KTEB 240251Z 09003KT 10SM OVC016 19/17 A2982 RMK AO2 SLP098 T01890167 50002 $
KTEB 240151Z 09003KT 8SM BKN017 BKN024 19/17 A2983 RMK AO2 SLP103 T01940167 $
KTEB 240051Z 07003KT 8SM FEW018 BKN024 19/17 A2982 RMK AO2 SLP097 T01890167 $
KTEB 232351Z VRB03KT 8SM OVC013 19/17 A2982 RMK AO2 SLP097 60000 T01940167 10200 20178 53002 $
KTEB 232251Z 00000KT 10SM OVC015 19/16 A2981 RMK AO2 SLP094 T01940161 $
KTEB 232151Z 11004KT 8SM OVC015 19/16 A2981 RMK AO2 SLP094 T01940161 $
KTEB 232051Z 00000KT 6SM BR OVC010 19/16 A2981 RMK AO2 RAE11 SLP095 P0000 60000 T01940161 56011 $
KTEB 231951Z 09005KT 6SM -RA BR OVC010 19/16 A2981 RMK AO2 DZB16E26RAB26 SLP095 P0000 T01890161 $
KTEB 231924Z 05004KT 6SM -DZ BR OVC010 19/16 A2982 RMK AO2 DZB16 P0000 T01890156 $
KTEB 231851Z 07004KT 6SM BR OVC009 18/16 A2984 RMK AO2 SLP104 T01830156 $
KTEB 231751Z 07005KT 10SM BR OVC009 18/16 A2985 RMK AO2 SLP106 60000 T01830156 10183 20172 58009 $
KTEB 231651Z 05005KT 5SM BR OVC007 17/15 A2986 RMK AO2 SLP110 T01720150 $
KTEB 231551Z 08007KT 6SM BR OVC008 17/15 A2987 RMK AO2 SLP113 T01720150 $
KTEB 231451Z 09009KT 10SM OVC013 18/15 A2987 RMK AO2 SLP116 60000 T01780150 55001 $
KTEB 231421Z 06006KT 10SM OVC013 18/14 A2986 RMK AO2 T01830144 $
KTEB 231351Z 07011G14KT 10SM OVC016 18/14 A2987 RMK AO2 SLP115 T01780139 $
KTEB 231251Z 07007KT 10SM OVC019 18/13 A2988 RMK AO2 DZB00E42 SLP117 P0000 T01780133 $
KTEB 231151Z 08008G16KT 10SM OVC020 18/12 A2988 RMK AO2 SLP117 60000 70008 T01830122 10183 20172 58004 $
KTEB 231051Z 03004KT 10SM OVC022 18/13 A2989 RMK AO2 DZE00 SLP122 P0000 T01780133 $